createdAt,value
2023-05-19T00:00:25.808Z,443.00
2023-05-19T00:01:25.765Z,443.00
2023-05-19T00:02:25.919Z,441.00
2023-05-19T00:03:25.747Z,438.00
2023-05-19T00:04:25.772Z,437.00
2023-05-19T00:05:25.724Z,437.00
2023-05-19T00:06:25.749Z,436.00
2023-05-19T00:07:25.689Z,437.00
2023-05-19T00:08:25.705Z,437.00
2023-05-19T00:09:25.627Z,437.00
2023-05-19T00:10:25.731Z,437.00
2023-05-19T00:11:25.641Z,435.00
2023-05-19T00:12:25.691Z,437.00
2023-05-19T00:13:25.612Z,438.00
2023-05-19T00:14:25.650Z,439.00
2023-05-19T00:15:25.563Z,438.00
2023-05-19T00:16:25.694Z,438.00
2023-05-19T00:17:25.538Z,436.00
2023-05-19T00:18:25.630Z,436.00
2023-05-19T00:19:25.598Z,438.00
2023-05-19T00:20:25.493Z,434.00
2023-05-19T00:21:25.474Z,437.00
2023-05-19T00:22:25.505Z,437.00
2023-05-19T00:23:25.460Z,438.00
2023-05-19T00:24:25.585Z,439.00
2023-05-19T00:25:25.424Z,440.00
2023-05-19T00:26:25.436Z,440.00
2023-05-19T00:27:25.406Z,439.00
2023-05-19T00:28:25.445Z,437.00
2023-05-19T00:29:25.377Z,438.00
2023-05-19T00:30:25.417Z,437.00
2023-05-19T00:31:25.396Z,434.00
2023-05-19T00:32:25.431Z,434.00
2023-05-19T00:33:25.309Z,435.00
2023-05-19T00:34:25.315Z,436.00
2023-05-19T00:35:25.277Z,438.00
2023-05-19T00:36:25.353Z,437.00
2023-05-19T00:37:25.269Z,436.00
2023-05-19T00:38:25.322Z,437.00
2023-05-19T00:39:25.238Z,437.00
2023-05-19T00:40:25.336Z,440.00
2023-05-19T00:41:25.255Z,439.00
2023-05-19T00:42:25.241Z,439.00
2023-05-19T00:43:25.208Z,438.00
2023-05-19T00:44:27.248Z,439.00
2023-05-19T00:45:25.170Z,439.00
2023-05-19T00:46:25.176Z,438.00
2023-05-19T00:47:25.182Z,438.00
2023-05-19T00:48:25.234Z,436.00
2023-05-19T00:49:25.107Z,440.00
2023-05-19T00:50:25.248Z,440.00
2023-05-19T00:51:25.080Z,440.00
2023-05-19T00:52:25.194Z,441.00
2023-05-19T00:53:25.065Z,440.00
2023-05-19T00:54:25.069Z,441.00
2023-05-19T00:55:25.010Z,440.00
2023-05-19T00:56:25.053Z,441.00
2023-05-19T00:57:25.022Z,441.00
2023-05-19T00:58:25.056Z,442.00
2023-05-19T00:59:24.979Z,441.00
2023-05-19T01:00:24.981Z,440.00
2023-05-19T01:01:24.983Z,439.00
2023-05-19T01:02:25.020Z,437.00
2023-05-19T01:03:25.046Z,437.00
2023-05-19T01:04:24.933Z,438.00
2023-05-19T01:05:24.900Z,443.00
2023-05-19T01:06:24.952Z,444.00
2023-05-19T01:07:24.868Z,443.00
2023-05-19T01:08:24.924Z,441.00
2023-05-19T01:09:24.848Z,439.00
2023-05-19T01:10:24.942Z,440.00
2023-05-19T01:11:24.824Z,441.00
2023-05-19T01:12:24.900Z,439.00
2023-05-19T01:13:24.795Z,439.00
2023-05-19T01:14:24.858Z,441.00
2023-05-19T01:15:24.760Z,438.00
2023-05-19T01:16:24.848Z,436.00
2023-05-19T01:17:24.786Z,440.00
2023-05-19T01:18:24.856Z,439.00
2023-05-19T01:19:24.794Z,440.00
2023-05-19T01:20:24.717Z,439.00
2023-05-19T01:21:24.692Z,438.00
2023-05-19T01:22:24.722Z,441.00
2023-05-19T01:23:24.665Z,441.00
2023-05-19T01:24:24.692Z,440.00
2023-05-19T01:25:24.624Z,441.00
2023-05-19T01:26:24.645Z,442.00
2023-05-19T01:27:24.612Z,440.00
2023-05-19T01:28:24.670Z,442.00
2023-05-19T01:29:24.582Z,441.00
2023-05-19T01:30:24.609Z,440.00
2023-05-19T01:31:24.582Z,440.00
2023-05-19T01:32:24.586Z,440.00
2023-05-19T01:33:24.511Z,442.00
2023-05-19T01:34:24.590Z,442.00
2023-05-19T01:35:24.484Z,443.00
2023-05-19T01:36:24.575Z,445.00
2023-05-19T01:37:24.476Z,444.00
2023-05-19T01:38:24.540Z,445.00
2023-05-19T01:39:24.441Z,444.00
2023-05-19T01:40:24.431Z,444.00
2023-05-19T01:41:24.400Z,443.00
2023-05-19T01:42:25.538Z,443.00
2023-05-19T01:43:24.375Z,441.00
2023-05-19T01:44:25.406Z,443.00
2023-05-19T01:45:24.363Z,442.00
2023-05-19T01:46:24.484Z,443.00
2023-05-19T01:47:24.339Z,445.00
2023-05-19T01:48:24.473Z,443.00
2023-05-19T01:49:24.308Z,441.00
2023-05-19T01:50:24.296Z,439.00
2023-05-19T01:51:24.272Z,440.00
2023-05-19T01:52:24.325Z,443.00
2023-05-19T01:53:24.248Z,442.00
2023-05-19T01:54:24.320Z,441.00
2023-05-19T01:55:24.232Z,440.00
2023-05-19T01:56:24.248Z,440.00
2023-05-19T01:57:24.203Z,441.00
2023-05-19T01:58:25.177Z,441.00
2023-05-19T01:59:24.181Z,440.00
2023-05-19T02:00:24.246Z,439.00
2023-05-19T02:01:24.177Z,439.00
2023-05-19T02:02:24.168Z,440.00
2023-05-19T02:03:24.112Z,439.00
2023-05-19T02:04:24.262Z,439.00
2023-05-19T02:05:24.086Z,439.00
2023-05-19T02:06:24.158Z,439.00
2023-05-19T02:07:24.060Z,443.00
2023-05-19T02:08:24.084Z,443.00
2023-05-19T02:09:24.048Z,444.00
2023-05-19T02:10:24.035Z,445.00
2023-05-19T02:11:24.024Z,445.00
2023-05-19T02:12:24.128Z,446.00
2023-05-19T02:13:24.018Z,448.00
2023-05-19T02:14:24.068Z,447.00
2023-05-19T02:15:23.958Z,447.00
2023-05-19T02:16:23.989Z,447.00
2023-05-19T02:17:23.932Z,445.00
2023-05-19T02:18:23.946Z,446.00
2023-05-19T02:19:24.132Z,446.00
2023-05-19T02:20:23.921Z,447.00
2023-05-19T02:21:23.855Z,447.00
2023-05-19T02:22:23.930Z,447.00
2023-05-19T02:23:23.860Z,443.00
2023-05-19T02:24:24.087Z,443.00
2023-05-19T02:25:23.826Z,442.00
2023-05-19T02:26:23.843Z,439.00
2023-05-19T02:27:23.782Z,437.00
2023-05-19T02:28:23.864Z,438.00
2023-05-19T02:29:23.768Z,440.00
2023-05-19T02:30:24.867Z,444.00
2023-05-19T02:31:23.789Z,445.00
2023-05-19T02:32:23.794Z,446.00
2023-05-19T02:33:23.727Z,446.00
2023-05-19T02:34:23.710Z,447.00
2023-05-19T02:35:23.666Z,446.00
2023-05-19T02:36:23.791Z,445.00
2023-05-19T02:37:23.687Z,442.00
2023-05-19T02:38:23.736Z,442.00
2023-05-19T02:39:23.630Z,440.00
2023-05-19T02:40:23.643Z,440.00
2023-05-19T02:41:23.600Z,441.00
2023-05-19T02:42:23.722Z,443.00
2023-05-19T02:43:23.572Z,443.00
2023-05-19T02:44:23.712Z,441.00
2023-05-19T02:45:23.571Z,440.00
2023-05-19T02:46:23.627Z,441.00
2023-05-19T02:47:23.537Z,437.00
2023-05-19T02:48:23.543Z,436.00
2023-05-19T02:49:23.497Z,436.00
2023-05-19T02:50:23.519Z,438.00
2023-05-19T02:51:23.477Z,436.00
2023-05-19T02:52:23.524Z,439.00
2023-05-19T02:53:23.445Z,442.00
2023-05-19T02:54:23.443Z,442.00
2023-05-19T02:55:23.433Z,442.00
2023-05-19T02:56:23.446Z,443.00
2023-05-19T02:57:23.386Z,446.00
2023-05-19T02:58:23.464Z,448.00
2023-05-19T02:59:25.495Z,449.00
2023-05-19T03:00:23.446Z,447.00
2023-05-19T03:01:23.383Z,447.00
2023-05-19T03:02:23.400Z,444.00
2023-05-19T03:03:23.437Z,445.00
2023-05-19T03:04:23.310Z,446.00
2023-05-19T03:05:23.322Z,446.00
2023-05-19T03:06:23.405Z,447.00
2023-05-19T03:07:23.242Z,449.00
2023-05-19T03:08:23.344Z,451.00
2023-05-19T03:09:23.225Z,448.00
2023-05-19T03:10:23.251Z,448.00
2023-05-19T03:11:23.290Z,448.00
2023-05-19T03:12:23.230Z,447.00
2023-05-19T03:13:23.153Z,447.00
2023-05-19T03:14:25.271Z,446.00
2023-05-19T03:15:23.144Z,445.00
2023-05-19T03:16:23.218Z,445.00
2023-05-19T03:17:23.176Z,446.00
2023-05-19T03:18:23.216Z,445.00
2023-05-19T03:19:23.140Z,446.00
2023-05-19T03:20:23.134Z,446.00
2023-05-19T03:21:23.071Z,446.00
2023-05-19T03:22:23.133Z,448.00
2023-05-19T03:23:23.053Z,448.00
2023-05-19T03:24:23.118Z,448.00
2023-05-19T03:25:23.007Z,448.00
2023-05-19T03:26:23.067Z,449.00
2023-05-19T03:27:22.995Z,451.00
2023-05-19T03:28:22.988Z,449.00
2023-05-19T03:29:22.986Z,451.00
2023-05-19T03:30:23.032Z,451.00
2023-05-19T03:31:22.945Z,450.00
2023-05-19T03:32:23.068Z,452.00
2023-05-19T03:33:23.195Z,453.00
2023-05-19T03:34:22.934Z,454.00
2023-05-19T03:35:22.857Z,454.00
2023-05-19T03:36:22.887Z,453.00
2023-05-19T03:37:22.835Z,452.00
2023-05-19T03:38:22.851Z,454.00
2023-05-19T03:39:22.854Z,452.00
2023-05-19T03:40:22.787Z,452.00
2023-05-19T03:41:22.789Z,452.00
2023-05-19T03:42:22.841Z,452.00
2023-05-19T03:43:22.755Z,450.00
2023-05-19T03:44:22.789Z,448.00
2023-05-19T03:45:22.745Z,447.00
2023-05-19T03:46:22.838Z,445.00
2023-05-19T03:47:22.708Z,448.00
2023-05-19T03:48:22.788Z,450.00
2023-05-19T03:49:22.679Z,450.00
2023-05-19T03:50:22.737Z,450.00
2023-05-19T03:51:22.641Z,446.00
2023-05-19T03:52:22.736Z,445.00
2023-05-19T03:53:22.629Z,447.00
2023-05-19T03:54:22.781Z,446.00
2023-05-19T03:55:22.578Z,447.00
2023-05-19T03:56:22.582Z,446.00
2023-05-19T03:57:22.562Z,444.00
2023-05-19T03:58:22.584Z,443.00
2023-05-19T03:59:22.530Z,447.00
2023-05-19T04:00:22.698Z,447.00
2023-05-19T04:01:22.516Z,443.00
2023-05-19T04:02:22.577Z,443.00
2023-05-19T04:03:22.688Z,445.00
2023-05-19T04:04:22.553Z,445.00
2023-05-19T04:05:22.459Z,445.00
2023-05-19T04:06:22.498Z,445.00
2023-05-19T04:07:22.446Z,445.00
2023-05-19T04:08:22.470Z,444.00
2023-05-19T04:09:22.392Z,444.00
2023-05-19T04:10:22.483Z,442.00
2023-05-19T04:11:22.370Z,441.00
2023-05-19T04:12:22.431Z,442.00
2023-05-19T04:13:22.352Z,442.00
2023-05-19T04:14:22.381Z,442.00
2023-05-19T04:15:22.296Z,444.00
2023-05-19T04:16:22.659Z,445.00
2023-05-19T04:17:22.452Z,443.00
2023-05-19T04:18:22.386Z,441.00
2023-05-19T04:19:22.431Z,441.00
2023-05-19T04:20:23.373Z,439.00
2023-05-19T04:21:22.247Z,440.00
2023-05-19T04:22:22.230Z,440.00
2023-05-19T04:23:22.205Z,439.00
2023-05-19T04:24:22.321Z,442.00
2023-05-19T04:25:22.164Z,442.00
2023-05-19T04:26:22.255Z,443.00
2023-05-19T04:27:22.138Z,443.00
2023-05-19T04:28:23.207Z,444.00
2023-05-19T04:29:22.126Z,443.00
2023-05-19T04:30:22.500Z,443.00
2023-05-19T04:31:22.179Z,443.00
2023-05-19T04:32:22.087Z,450.00
2023-05-19T04:33:22.073Z,447.00
2023-05-19T04:34:22.117Z,445.00
2023-05-19T04:35:22.015Z,444.00
2023-05-19T04:36:22.085Z,446.00
2023-05-19T04:37:22.078Z,446.00
2023-05-19T04:38:22.064Z,441.00
2023-05-19T04:39:21.991Z,441.00
2023-05-19T04:40:22.057Z,443.00
2023-05-19T04:41:22.000Z,444.00
2023-05-19T04:42:22.023Z,444.00
2023-05-19T04:43:21.958Z,443.00
2023-05-19T04:44:21.995Z,443.00
2023-05-19T04:45:21.929Z,441.00
2023-05-19T04:46:22.057Z,442.00
2023-05-19T04:47:21.898Z,444.00
2023-05-19T04:48:22.015Z,443.00
2023-05-19T04:49:21.823Z,439.00
2023-05-19T04:50:21.944Z,437.00
2023-05-19T04:51:21.819Z,438.00
2023-05-19T04:52:21.911Z,436.00
2023-05-19T04:53:21.803Z,438.00
2023-05-19T04:54:21.932Z,437.00
2023-05-19T04:55:21.952Z,439.00
2023-05-19T04:56:21.791Z,439.00
2023-05-19T04:57:21.738Z,437.00
2023-05-19T04:58:21.757Z,435.00
2023-05-19T04:59:21.721Z,434.00
2023-05-19T05:00:21.775Z,435.00
2023-05-19T05:01:21.704Z,434.00
2023-05-19T05:02:21.908Z,437.00
2023-05-19T05:03:21.806Z,436.00
2023-05-19T05:04:21.656Z,438.00
2023-05-19T05:05:21.635Z,438.00
2023-05-19T05:06:22.663Z,437.00
2023-05-19T05:07:21.602Z,437.00
2023-05-19T05:08:21.587Z,435.00
2023-05-19T05:09:21.558Z,441.00
2023-05-19T05:10:21.567Z,441.00
2023-05-19T05:11:21.543Z,440.00
2023-05-19T05:12:21.632Z,440.00
2023-05-19T05:13:21.509Z,440.00
2023-05-19T05:14:21.490Z,438.00
2023-05-19T05:15:21.479Z,439.00
2023-05-19T05:16:21.500Z,438.00
2023-05-19T05:17:21.471Z,439.00
2023-05-19T05:18:21.488Z,438.00
2023-05-19T05:19:21.462Z,437.00
2023-05-19T05:20:21.430Z,432.00
2023-05-19T05:21:21.387Z,432.00
2023-05-19T05:22:22.390Z,431.00
2023-05-19T05:23:21.485Z,431.00
2023-05-19T05:24:21.625Z,431.00
2023-05-19T05:25:21.328Z,433.00
2023-05-19T05:26:21.416Z,430.00
2023-05-19T05:27:21.381Z,431.00
2023-05-19T05:28:21.450Z,432.00
2023-05-19T05:29:21.347Z,430.00
2023-05-19T05:30:21.417Z,428.00
2023-05-19T05:31:21.426Z,430.00
2023-05-19T05:32:21.588Z,429.00
2023-05-19T05:33:21.471Z,430.00
2023-05-19T05:34:21.467Z,430.00
2023-05-19T05:35:21.311Z,431.00
2023-05-19T05:36:21.407Z,434.00
2023-05-19T05:37:21.303Z,434.00
2023-05-19T05:38:21.367Z,433.00
2023-05-19T05:39:21.281Z,435.00
2023-05-19T05:40:21.256Z,432.00
2023-05-19T05:41:21.252Z,434.00
2023-05-19T05:42:22.311Z,434.00
2023-05-19T05:43:21.227Z,434.00
2023-05-19T05:44:21.192Z,433.00
2023-05-19T05:45:21.064Z,432.00
2023-05-19T05:46:21.253Z,430.00
2023-05-19T05:47:21.053Z,429.00
2023-05-19T05:48:21.246Z,429.00
2023-05-19T05:49:21.021Z,430.00
2023-05-19T05:50:21.044Z,428.00
2023-05-19T05:51:21.005Z,428.00
2023-05-19T05:52:21.173Z,430.00
2023-05-19T05:53:20.979Z,430.00
2023-05-19T05:54:21.236Z,428.00
2023-05-19T05:55:21.180Z,425.00
2023-05-19T05:56:20.978Z,427.00
2023-05-19T05:57:20.905Z,428.00
2023-05-19T05:58:20.987Z,428.00
2023-05-19T05:59:20.903Z,428.00
2023-05-19T06:00:20.955Z,431.00
2023-05-19T06:01:21.055Z,434.00
2023-05-19T06:02:21.056Z,428.00
2023-05-19T06:03:20.944Z,429.00
2023-05-19T06:04:20.931Z,429.00
2023-05-19T06:05:20.861Z,429.00
2023-05-19T06:06:20.910Z,431.00
2023-05-19T06:07:20.808Z,429.00
2023-05-19T06:08:20.884Z,428.00
2023-05-19T06:09:20.762Z,427.00
2023-05-19T06:10:21.816Z,428.00
2023-05-19T06:11:20.733Z,429.00
2023-05-19T06:12:21.767Z,430.00
2023-05-19T06:13:20.701Z,432.00
2023-05-19T06:14:20.806Z,432.00
2023-05-19T06:15:20.672Z,434.00
2023-05-19T06:16:20.852Z,436.00
2023-05-19T06:17:20.655Z,436.00
2023-05-19T06:18:20.699Z,437.00
2023-05-19T06:19:20.650Z,437.00
2023-05-19T06:20:20.654Z,438.00
2023-05-19T06:21:20.626Z,439.00
2023-05-19T06:22:20.666Z,438.00
2023-05-19T06:23:20.599Z,439.00
2023-05-19T06:24:20.636Z,440.00
2023-05-19T06:25:20.571Z,438.00
2023-05-19T06:26:20.599Z,440.00
2023-05-19T06:27:20.529Z,439.00
2023-05-19T06:28:20.726Z,438.00
2023-05-19T06:29:20.503Z,437.00
2023-05-19T06:30:20.588Z,437.00
2023-05-19T06:31:20.491Z,436.00
2023-05-19T06:32:20.532Z,436.00
2023-05-19T06:33:20.420Z,438.00
2023-05-19T06:34:20.448Z,437.00
2023-05-19T06:35:20.498Z,440.00
2023-05-19T06:36:21.530Z,439.00
2023-05-19T06:37:20.368Z,438.00
2023-05-19T06:38:20.465Z,438.00
2023-05-19T06:39:20.343Z,436.00
2023-05-19T06:40:20.385Z,436.00
2023-05-19T06:41:20.328Z,438.00
2023-05-19T06:42:20.449Z,440.00
2023-05-19T06:43:20.283Z,433.00
2023-05-19T06:44:21.296Z,430.00
2023-05-19T06:45:20.282Z,433.00
2023-05-19T06:46:20.351Z,434.00
2023-05-19T06:47:20.263Z,435.00
2023-05-19T06:48:20.291Z,433.00
2023-05-19T06:49:20.208Z,431.00
2023-05-19T06:50:20.235Z,431.00
2023-05-19T06:51:20.168Z,431.00
2023-05-19T06:52:20.236Z,432.00
2023-05-19T06:53:20.156Z,436.00
2023-05-19T06:54:20.208Z,438.00
2023-05-19T06:55:20.145Z,440.00
2023-05-19T06:56:21.209Z,438.00
2023-05-19T06:57:20.085Z,437.00
2023-05-19T06:58:20.219Z,436.00
2023-05-19T06:59:20.065Z,434.00
2023-05-19T07:00:22.124Z,437.00
2023-05-19T07:01:20.085Z,437.00
2023-05-19T07:02:20.112Z,435.00
2023-05-19T07:03:20.056Z,432.00
2023-05-19T07:04:20.081Z,435.00
2023-05-19T07:05:19.991Z,436.00
2023-05-19T07:06:20.107Z,436.00
2023-05-19T07:07:19.964Z,435.00
2023-05-19T07:08:20.064Z,434.00
2023-05-19T07:09:19.936Z,436.00
2023-05-19T07:10:19.961Z,436.00
2023-05-19T07:11:19.915Z,437.00
2023-05-19T07:12:20.028Z,437.00
2023-05-19T07:13:19.886Z,439.00
2023-05-19T07:14:21.999Z,438.00
2023-05-19T07:15:19.848Z,436.00
2023-05-19T07:16:19.985Z,435.00
2023-05-19T07:17:19.834Z,433.00
2023-05-19T07:18:19.873Z,436.00
2023-05-19T07:19:19.915Z,438.00
2023-05-19T07:20:19.829Z,441.00
2023-05-19T07:21:19.778Z,441.00
2023-05-19T07:22:19.858Z,438.00
2023-05-19T07:23:19.756Z,439.00
2023-05-19T07:24:19.820Z,441.00
2023-05-19T07:25:19.744Z,440.00
2023-05-19T07:26:19.814Z,434.00
2023-05-19T07:27:19.686Z,436.00
2023-05-19T07:28:19.796Z,436.00
2023-05-19T07:29:19.684Z,437.00
2023-05-19T07:30:19.773Z,436.00
2023-05-19T07:31:19.641Z,436.00
2023-05-19T07:32:20.793Z,437.00
2023-05-19T07:33:19.613Z,436.00
2023-05-19T07:34:19.654Z,436.00
2023-05-19T07:35:19.637Z,435.00
2023-05-19T07:36:19.711Z,434.00
2023-05-19T07:37:19.562Z,433.00
2023-05-19T07:38:20.580Z,436.00
2023-05-19T07:39:19.570Z,437.00
2023-05-19T07:40:19.585Z,437.00
2023-05-19T07:41:19.696Z,533.00
2023-05-19T07:42:19.542Z,445.00
2023-05-19T07:43:19.589Z,444.00
2023-05-19T07:44:19.498Z,450.00
2023-05-19T07:45:19.455Z,520.00
2023-05-19T07:46:19.579Z,467.00
2023-05-19T07:47:19.446Z,448.00
2023-05-19T07:48:19.499Z,438.00
2023-05-19T07:49:19.390Z,436.00
2023-05-19T07:50:19.443Z,434.00
2023-05-19T07:51:19.420Z,433.00
2023-05-19T07:52:19.441Z,431.00
2023-05-19T07:53:19.342Z,534.00
2023-05-19T07:54:19.414Z,600.00
2023-05-19T07:55:19.303Z,445.00
2023-05-19T07:56:19.383Z,451.00
2023-05-19T07:57:19.276Z,525.00
2023-05-19T07:58:19.289Z,454.00
2023-05-19T07:59:19.245Z,436.00
2023-05-19T08:00:19.360Z,435.00
2023-05-19T08:01:19.222Z,433.00
2023-05-19T08:02:19.355Z,429.00
2023-05-19T08:03:19.382Z,431.00
2023-05-19T08:04:20.419Z,558.00
2023-05-19T08:05:19.178Z,449.00
2023-05-19T08:06:19.304Z,424.00
2023-05-19T08:07:19.164Z,421.00
2023-05-19T08:08:20.196Z,420.00
2023-05-19T08:09:19.139Z,421.00
2023-05-19T08:10:19.181Z,416.00
2023-05-19T08:11:19.084Z,413.00
2023-05-19T08:12:19.122Z,411.00
2023-05-19T08:13:19.072Z,415.00
2023-05-19T08:14:19.106Z,412.00
2023-05-19T08:15:19.047Z,410.00
2023-05-19T08:16:19.201Z,411.00
2023-05-19T08:17:19.029Z,414.00
2023-05-19T08:18:19.103Z,417.00
2023-05-19T08:19:19.057Z,418.00
2023-05-19T08:20:19.058Z,419.00
2023-05-19T08:21:19.273Z,415.00
2023-05-19T08:22:19.078Z,418.00
2023-05-19T08:23:18.945Z,417.00
2023-05-19T08:24:19.034Z,417.00
2023-05-19T08:25:18.911Z,417.00
2023-05-19T08:26:18.990Z,419.00
2023-05-19T08:27:18.927Z,422.00
2023-05-19T08:28:18.892Z,423.00
2023-05-19T08:29:18.864Z,426.00
2023-05-19T08:30:20.009Z,423.00
2023-05-19T08:31:18.851Z,424.00
2023-05-19T08:32:18.941Z,424.00
2023-05-19T08:33:18.819Z,427.00
2023-05-19T08:34:20.065Z,429.00
2023-05-19T08:35:18.901Z,431.00
2023-05-19T08:36:19.868Z,428.00
2023-05-19T08:37:18.736Z,429.00
2023-05-19T08:38:18.743Z,433.00
2023-05-19T08:39:18.725Z,430.00
2023-05-19T08:40:18.777Z,429.00
2023-05-19T08:41:18.710Z,429.00
2023-05-19T08:42:18.741Z,425.00
2023-05-19T08:43:18.669Z,422.00
2023-05-19T08:44:19.203Z,424.00
2023-05-19T08:45:18.649Z,421.00
2023-05-19T08:46:20.000Z,420.00
2023-05-19T08:47:18.829Z,421.00
2023-05-19T08:48:18.683Z,422.00
2023-05-19T08:49:18.610Z,423.00
2023-05-19T08:50:18.637Z,422.00
2023-05-19T08:51:18.762Z,422.00
2023-05-19T08:52:18.678Z,419.00
2023-05-19T08:53:32.382Z,420.00
2023-05-19T08:54:19.555Z,421.00
2023-05-19T08:55:18.573Z,420.00
2023-05-19T08:56:18.657Z,424.00
2023-05-19T08:57:18.758Z,422.00
2023-05-19T08:58:19.115Z,425.00
2023-05-19T08:59:18.617Z,424.00
2023-05-19T09:00:19.798Z,421.00
2023-05-19T09:01:18.710Z,423.00
2023-05-19T09:02:18.414Z,420.00
2023-05-19T09:03:23.672Z,420.00
2023-05-19T09:04:20.032Z,422.00
2023-05-19T09:05:24.685Z,423.00
2023-05-19T09:06:20.030Z,425.00
2023-05-19T09:07:19.560Z,428.00
2023-05-19T09:08:18.351Z,428.00
2023-05-19T09:09:18.366Z,428.00
2023-05-19T09:10:18.294Z,426.00
2023-05-19T09:11:18.386Z,425.00
2023-05-19T09:12:18.338Z,423.00
2023-05-19T09:13:18.348Z,421.00
2023-05-19T09:14:18.268Z,422.00
2023-05-19T09:15:18.390Z,421.00
2023-05-19T09:16:18.256Z,422.00
2023-05-19T09:17:18.225Z,427.00
2023-05-19T09:18:18.210Z,429.00
2023-05-19T09:19:18.307Z,427.00
2023-05-19T09:20:18.193Z,430.00
2023-05-19T09:21:18.290Z,430.00
2023-05-19T09:22:18.198Z,429.00
2023-05-19T09:23:18.183Z,429.00
2023-05-19T09:24:18.183Z,428.00
2023-05-19T09:25:19.204Z,428.00
2023-05-19T09:26:18.088Z,427.00
2023-05-19T09:27:18.312Z,425.00
2023-05-19T09:28:18.338Z,421.00
2023-05-19T09:29:18.131Z,421.00
2023-05-19T09:30:18.049Z,420.00
2023-05-19T09:31:18.127Z,420.00
2023-05-19T09:32:18.045Z,417.00
2023-05-19T09:33:18.065Z,419.00
2023-05-19T09:34:17.977Z,419.00
2023-05-19T09:35:39.108Z,419.00
2023-05-19T09:36:17.956Z,420.00
2023-05-19T09:37:17.970Z,423.00
2023-05-19T09:38:17.928Z,420.00
2023-05-19T09:39:17.976Z,416.00
2023-05-19T09:40:17.952Z,416.00
2023-05-19T09:41:17.965Z,421.00
2023-05-19T09:42:17.867Z,430.00
2023-05-19T09:43:17.900Z,426.00
2023-05-19T09:44:17.849Z,424.00
2023-05-19T09:45:17.916Z,425.00
2023-05-19T09:46:17.825Z,425.00
2023-05-19T09:47:17.905Z,422.00
2023-05-19T09:48:17.792Z,424.00
2023-05-19T09:49:17.855Z,424.00
2023-05-19T09:50:17.824Z,423.00
2023-05-19T09:51:17.776Z,423.00
2023-05-19T09:52:17.745Z,418.00
2023-05-19T09:53:18.844Z,422.00
2023-05-19T09:54:17.705Z,420.00
2023-05-19T09:55:17.791Z,420.00
2023-05-19T09:56:17.692Z,420.00
2023-05-19T09:57:17.692Z,420.00
2023-05-19T09:58:17.666Z,422.00
2023-05-19T09:59:17.767Z,424.00
2023-05-19T10:00:17.747Z,423.00
2023-05-19T10:01:17.756Z,417.00
2023-05-19T10:02:17.614Z,420.00
2023-05-19T10:03:17.638Z,422.00
2023-05-19T10:04:17.585Z,420.00
2023-05-19T10:05:17.879Z,420.00
2023-05-19T10:06:17.549Z,416.00
2023-05-19T10:07:17.593Z,418.00
2023-05-19T10:08:17.521Z,428.00
2023-05-19T10:09:17.580Z,433.00
2023-05-19T10:10:17.584Z,421.00
2023-05-19T10:11:18.590Z,414.00
2023-05-19T10:12:17.478Z,412.00
2023-05-19T10:13:17.516Z,412.00
2023-05-19T10:14:17.440Z,413.00
2023-05-19T10:15:17.523Z,415.00
2023-05-19T10:16:17.419Z,413.00
2023-05-19T10:17:17.986Z,419.00
2023-05-19T10:18:19.918Z,417.00
2023-05-19T10:19:17.406Z,418.00
2023-05-19T10:20:17.450Z,420.00
2023-05-19T10:21:17.345Z,421.00
2023-05-19T10:22:17.390Z,418.00
2023-05-19T10:23:17.350Z,417.00
2023-05-19T10:24:18.413Z,421.00
2023-05-19T10:25:17.307Z,422.00
2023-05-19T10:26:17.312Z,421.00
2023-05-19T10:27:17.281Z,418.00
2023-05-19T10:28:17.334Z,417.00
2023-05-19T10:29:17.287Z,412.00
2023-05-19T10:30:17.469Z,419.00
2023-05-19T10:31:17.221Z,426.00
2023-05-19T10:32:17.252Z,432.00
2023-05-19T10:33:17.289Z,442.00
2023-05-19T10:34:17.261Z,443.00
2023-05-19T10:35:17.203Z,440.00
2023-05-19T10:36:18.208Z,445.00
2023-05-19T10:37:17.118Z,424.00
2023-05-19T10:38:17.282Z,381.00
2023-05-19T10:39:17.172Z,395.00
2023-05-19T10:40:17.524Z,405.00
2023-05-19T10:41:17.119Z,415.00
2023-05-19T10:42:17.113Z,416.00
2023-05-19T10:43:17.060Z,414.00
2023-05-19T10:44:17.127Z,415.00
2023-05-19T10:45:17.019Z,418.00
2023-05-19T10:46:17.051Z,421.00
2023-05-19T10:47:17.123Z,422.00
2023-05-19T10:48:17.184Z,421.00
2023-05-19T10:49:16.964Z,421.00
2023-05-19T10:50:17.053Z,419.00
2023-05-19T10:51:16.940Z,419.00
2023-05-19T10:52:16.987Z,422.00
2023-05-19T10:53:16.950Z,424.00
2023-05-19T10:54:16.985Z,428.00
2023-05-19T10:55:16.890Z,477.00
2023-05-19T10:56:17.017Z,479.00
2023-05-19T10:57:16.873Z,568.00
2023-05-19T10:58:16.933Z,478.00
2023-05-19T10:59:16.877Z,427.00
2023-05-19T11:00:16.933Z,424.00
2023-05-19T11:01:16.840Z,421.00
2023-05-19T11:02:16.982Z,420.00
2023-05-19T11:03:16.811Z,421.00
2023-05-19T11:04:16.906Z,419.00
2023-05-19T11:05:16.847Z,425.00
2023-05-19T11:06:16.774Z,419.00
2023-05-19T11:07:16.793Z,417.00
2023-05-19T11:08:16.787Z,420.00
2023-05-19T11:09:16.696Z,419.00
2023-05-19T11:10:16.822Z,419.00
2023-05-19T11:11:16.701Z,419.00
2023-05-19T11:12:16.715Z,421.00
2023-05-19T11:13:16.728Z,421.00
2023-05-19T11:14:16.740Z,425.00
2023-05-19T11:15:16.847Z,423.00
2023-05-19T11:16:16.746Z,422.00
2023-05-19T11:17:16.621Z,424.00
2023-05-19T11:18:16.761Z,416.00
2023-05-19T11:19:16.627Z,419.00
2023-05-19T11:20:16.566Z,418.00
2023-05-19T11:21:16.580Z,419.00
2023-05-19T11:22:16.607Z,420.00
2023-05-19T11:23:16.549Z,420.00
2023-05-19T11:24:16.602Z,419.00
2023-05-19T11:25:16.494Z,419.00
2023-05-19T11:26:16.519Z,420.00
2023-05-19T11:27:16.451Z,421.00
2023-05-19T11:28:16.531Z,418.00
2023-05-19T11:29:16.442Z,420.00
2023-05-19T11:30:16.427Z,419.00
2023-05-19T11:31:16.393Z,417.00
2023-05-19T11:32:16.590Z,416.00
2023-05-19T11:33:16.382Z,417.00
2023-05-19T11:34:16.470Z,416.00
2023-05-19T11:35:16.361Z,414.00
2023-05-19T11:36:16.392Z,415.00
2023-05-19T11:37:16.323Z,416.00
2023-05-19T11:38:16.396Z,417.00
2023-05-19T11:39:16.290Z,419.00
2023-05-19T11:40:16.298Z,417.00
2023-05-19T11:41:16.895Z,417.00
2023-05-19T11:42:16.321Z,421.00
2023-05-19T11:43:16.242Z,417.00
2023-05-19T11:44:16.327Z,416.00
2023-05-19T11:45:16.222Z,417.00
2023-05-19T11:46:17.272Z,417.00
2023-05-19T11:47:16.208Z,419.00
2023-05-19T11:48:16.303Z,417.00
2023-05-19T11:49:16.164Z,418.00
2023-05-19T11:50:16.196Z,420.00
2023-05-19T11:51:16.143Z,421.00
2023-05-19T11:52:16.288Z,419.00
2023-05-19T11:53:16.124Z,416.00
2023-05-19T11:54:18.209Z,417.00
2023-05-19T11:55:16.112Z,418.00
2023-05-19T11:56:16.121Z,416.00
2023-05-19T11:57:16.185Z,416.00
2023-05-19T11:58:16.165Z,416.00
2023-05-19T11:59:16.037Z,418.00
2023-05-19T12:00:16.035Z,416.00
2023-05-19T12:01:15.993Z,422.00
2023-05-19T12:02:16.082Z,419.00
2023-05-19T12:03:16.204Z,419.00
2023-05-19T12:04:16.060Z,421.00
2023-05-19T12:05:16.070Z,419.00
2023-05-19T12:06:16.020Z,421.00
2023-05-19T12:07:15.903Z,422.00
2023-05-19T12:08:16.000Z,418.00
2023-05-19T12:09:15.898Z,416.00
2023-05-19T12:10:15.952Z,419.00
2023-05-19T12:11:17.474Z,419.00
2023-05-19T12:12:15.921Z,420.00
2023-05-19T12:13:15.834Z,419.00
2023-05-19T12:14:15.943Z,419.00
2023-05-19T12:15:15.853Z,418.00
2023-05-19T12:16:15.875Z,421.00
2023-05-19T12:17:15.804Z,422.00
2023-05-19T12:18:16.909Z,422.00
2023-05-19T12:19:15.773Z,423.00
2023-05-19T12:20:15.769Z,421.00
2023-05-19T12:21:15.728Z,420.00
2023-05-19T12:22:15.784Z,418.00
2023-05-19T12:23:15.724Z,421.00
2023-05-19T12:24:15.801Z,422.00
2023-05-19T12:25:15.686Z,428.00
2023-05-19T12:26:15.716Z,423.00
2023-05-19T12:27:15.645Z,422.00
2023-05-19T12:28:15.737Z,452.00